Thursday 21st September 2017 - KPAO 212047Z 31010KT 10SM SCT035 21/09 A2990

Member Accomplishments

November 2010

Date
15th November 2010
Member
Pilar Davies
Instructor
Byron Bly
Aircraft
N1004E
Accomplishment
First Solo Flight

October 2010

Date
15th October 2010
Member
Amy Kim
Instructor
Laurant Lambert
Aircraft
N747ZP
Accomplishment
First Solo Flight

September 2010

Date
7th September 2010
Member
Curtis Light
Instructor
Mark Erwin
Aircraft
N2407N
Accomplishment
Private Pilots License

August 2010

Date
26th August 2010
Member
Gavin MacGarva
Instructor
Libor Kovarcik
Aircraft
N43779
Accomplishment
Instrument Rating
Date
26th August 2010
Member
Tom Cannon
Instructor
Andy McMahon
Aircraft
N784SP
Accomplishment
Instrument Rating
Date
23rd August 2010
Member
Javier Tapia
Instructor
Andy McMahon
Aircraft
N796SP
Accomplishment
First Solo Flight

July 2010

Date
31st July 2010
Member
Andrew Pollack
Instructor
Byron Bly
Aircraft
N16894
Accomplishment
Private Pilots License
Date
26th July 2010
Member
Kevin Phillips
Instructor
Byron Bly
Aircraft
N1400E
Accomplishment
Private Pilot License
Date
23rd July 2010
Member
Tess Koleczek
Instructor
Kelly O'Dea
Aircraft
N784SP
Accomplishment
Private Pilot License
Date
19th July 2010
Member
Thilo Salmon
Instructor
Laurent Lambert
Aircraft
N16894
Accomplishment
Private Pilot License
1 2 3 4 5 6 7 8 9 10 11 12 13 14 15 16 17 18 19 20 21 22 23 24 25 26 27 28 29 30 31 32 33 34 35 36 37 38 39 40 41 42 43 44
Advantage Aviation